sensor_id;sensor_type;location;lat;lon;timestamp;P1;durP1;ratioP1;P2;durP2;ratioP2
52180;SDS011;38158;53.338;6.514;2023-11-18T00:00:25;33.90;;;22.15;;
52180;SDS011;38158;53.338;6.514;2023-11-18T00:02:50;35.08;;;21.83;;
52180;SDS011;38158;53.338;6.514;2023-11-18T00:05:16;32.47;;;21.90;;
52180;SDS011;38158;53.338;6.514;2023-11-18T00:07:43;32.40;;;21.58;;
52180;SDS011;38158;53.338;6.514;2023-11-18T00:10:09;32.20;;;21.80;;
52180;SDS011;38158;53.338;6.514;2023-11-18T00:12:35;35.90;;;22.27;;
52180;SDS011;38158;53.338;6.514;2023-11-18T00:15:02;34.33;;;20.50;;
52180;SDS011;38158;53.338;6.514;2023-11-18T00:17:29;35.50;;;22.90;;
52180;SDS011;38158;53.338;6.514;2023-11-18T00:19:55;34.33;;;23.38;;
52180;SDS011;38158;53.338;6.514;2023-11-18T00:22:21;32.35;;;21.98;;
52180;SDS011;38158;53.338;6.514;2023-11-18T00:24:47;35.55;;;22.40;;
52180;SDS011;38158;53.338;6.514;2023-11-18T00:27:13;36.72;;;22.55;;
52180;SDS011;38158;53.338;6.514;2023-11-18T00:29:40;38.38;;;23.00;;
52180;SDS011;38158;53.338;6.514;2023-11-18T00:32:06;35.20;;;22.67;;
52180;SDS011;38158;53.338;6.514;2023-11-18T00:34:35;37.97;;;23.80;;
52180;SDS011;38158;53.338;6.514;2023-11-18T00:37:01;39.30;;;23.60;;
52180;SDS011;38158;53.338;6.514;2023-11-18T00:39:27;41.90;;;22.58;;
52180;SDS011;38158;53.338;6.514;2023-11-18T00:41:53;36.25;;;22.40;;
52180;SDS011;38158;53.338;6.514;2023-11-18T00:44:20;38.30;;;22.50;;
52180;SDS011;38158;53.338;6.514;2023-11-18T00:46:46;40.00;;;22.25;;
52180;SDS011;38158;53.338;6.514;2023-11-18T00:49:12;37.78;;;23.20;;
52180;SDS011;38158;53.338;6.514;2023-11-18T00:51:38;38.33;;;23.10;;
52180;SDS011;38158;53.338;6.514;2023-11-18T00:54:04;35.63;;;23.02;;
52180;SDS011;38158;53.338;6.514;2023-11-18T00:56:33;40.95;;;23.23;;
52180;SDS011;38158;53.338;6.514;2023-11-18T00:58:59;39.30;;;23.48;;
52180;SDS011;38158;53.338;6.514;2023-11-18T01:01:28;34.08;;;22.55;;
52180;SDS011;38158;53.338;6.514;2023-11-18T01:03:53;39.85;;;23.45;;
52180;SDS011;38158;53.338;6.514;2023-11-18T01:06:19;38.58;;;24.23;;
52180;SDS011;38158;53.338;6.514;2023-11-18T01:08:48;38.10;;;22.88;;
52180;SDS011;38158;53.338;6.514;2023-11-18T01:11:16;42.88;;;25.15;;
52180;SDS011;38158;53.338;6.514;2023-11-18T01:13:47;41.10;;;23.20;;
52180;SDS011;38158;53.338;6.514;2023-11-18T01:16:13;39.35;;;24.25;;
52180;SDS011;38158;53.338;6.514;2023-11-18T01:18:40;42.33;;;23.88;;
52180;SDS011;38158;53.338;6.514;2023-11-18T01:21:07;41.47;;;23.67;;
52180;SDS011;38158;53.338;6.514;2023-11-18T01:23:36;42.40;;;24.13;;
52180;SDS011;38158;53.338;6.514;2023-11-18T01:26:05;43.65;;;24.92;;
52180;SDS011;38158;53.338;6.514;2023-11-18T01:28:34;41.13;;;22.63;;
52180;SDS011;38158;53.338;6.514;2023-11-18T01:31:06;35.95;;;22.88;;
52180;SDS011;38158;53.338;6.514;2023-11-18T01:33:35;39.30;;;22.95;;
52180;SDS011;38158;53.338;6.514;2023-11-18T01:36:02;37.53;;;22.85;;
52180;SDS011;38158;53.338;6.514;2023-11-18T01:38:29;37.03;;;21.30;;
52180;SDS011;38158;53.338;6.514;2023-11-18T01:40:56;38.45;;;22.63;;
52180;SDS011;38158;53.338;6.514;2023-11-18T01:43:22;33.60;;;21.52;;
52180;SDS011;38158;53.338;6.514;2023-11-18T01:45:48;37.45;;;23.08;;
52180;SDS011;38158;53.338;6.514;2023-11-18T01:48:14;34.47;;;20.83;;
52180;SDS011;38158;53.338;6.514;2023-11-18T01:50:43;33.15;;;21.08;;
52180;SDS011;38158;53.338;6.514;2023-11-18T01:53:10;32.33;;;21.30;;
52180;SDS011;38158;53.338;6.514;2023-11-18T01:55:39;30.27;;;19.30;;
52180;SDS011;38158;53.338;6.514;2023-11-18T01:58:05;35.10;;;19.65;;
52180;SDS011;38158;53.338;6.514;2023-11-18T02:00:36;30.70;;;20.48;;
52180;SDS011;38158;53.338;6.514;2023-11-18T02:03:04;37.40;;;20.88;;
52180;SDS011;38158;53.338;6.514;2023-11-18T02:08:01;34.47;;;19.63;;
52180;SDS011;38158;53.338;6.514;2023-11-18T02:10:30;34.63;;;21.02;;
52180;SDS011;38158;53.338;6.514;2023-11-18T02:15:59;33.78;;;20.55;;
52180;SDS011;38158;53.338;6.514;2023-11-18T02:18:28;35.25;;;21.45;;
52180;SDS011;38158;53.338;6.514;2023-11-18T02:20:55;34.38;;;20.05;;
52180;SDS011;38158;53.338;6.514;2023-11-18T02:23:27;36.50;;;23.58;;
52180;SDS011;38158;53.338;6.514;2023-11-18T02:25:53;36.60;;;22.48;;
52180;SDS011;38158;53.338;6.514;2023-11-18T02:28:23;38.10;;;22.52;;
52180;SDS011;38158;53.338;6.514;2023-11-18T02:30:54;39.13;;;23.13;;
52180;SDS011;38158;53.338;6.514;2023-11-18T02:33:30;40.10;;;24.10;;
52180;SDS011;38158;53.338;6.514;2023-11-18T02:36:26;41.65;;;23.38;;
52180;SDS011;38158;53.338;6.514;2023-11-18T02:39:04;35.50;;;22.05;;
52180;SDS011;38158;53.338;6.514;2023-11-18T02:41:34;39.80;;;24.17;;
52180;SDS011;38158;53.338;6.514;2023-11-18T02:44:02;40.13;;;22.80;;
52180;SDS011;38158;53.338;6.514;2023-11-18T02:46:34;39.13;;;22.90;;
52180;SDS011;38158;53.338;6.514;2023-11-18T02:49:00;40.13;;;24.52;;
52180;SDS011;38158;53.338;6.514;2023-11-18T02:51:27;37.38;;;21.67;;
52180;SDS011;38158;53.338;6.514;2023-11-18T02:53:54;42.67;;;25.23;;
52180;SDS011;38158;53.338;6.514;2023-11-18T02:56:20;39.78;;;24.08;;
52180;SDS011;38158;53.338;6.514;2023-11-18T02:58:47;41.90;;;24.08;;
52180;SDS011;38158;53.338;6.514;2023-11-18T03:01:12;44.33;;;24.92;;
52180;SDS011;38158;53.338;6.514;2023-11-18T03:03:38;40.33;;;23.73;;
52180;SDS011;38158;53.338;6.514;2023-11-18T03:06:04;44.50;;;24.02;;
52180;SDS011;38158;53.338;6.514;2023-11-18T03:08:31;38.50;;;22.70;;
52180;SDS011;38158;53.338;6.514;2023-11-18T03:10:56;39.83;;;24.00;;
52180;SDS011;38158;53.338;6.514;2023-11-18T03:13:23;39.43;;;23.93;;
52180;SDS011;38158;53.338;6.514;2023-11-18T03:15:50;41.45;;;23.42;;
52180;SDS011;38158;53.338;6.514;2023-11-18T03:18:16;48.75;;;26.30;;
52180;SDS011;38158;53.338;6.514;2023-11-18T03:20:42;45.33;;;25.00;;
52180;SDS011;38158;53.338;6.514;2023-11-18T03:23:08;43.25;;;24.88;;
52180;SDS011;38158;53.338;6.514;2023-11-18T03:25:34;45.35;;;25.95;;
52180;SDS011;38158;53.338;6.514;2023-11-18T03:28:00;42.90;;;26.00;;
52180;SDS011;38158;53.338;6.514;2023-11-18T03:30:26;44.00;;;25.80;;
52180;SDS011;38158;53.338;6.514;2023-11-18T03:32:54;45.58;;;26.17;;
52180;SDS011;38158;53.338;6.514;2023-11-18T03:35:20;43.20;;;25.95;;
52180;SDS011;38158;53.338;6.514;2023-11-18T03:37:46;45.13;;;25.63;;
52180;SDS011;38158;53.338;6.514;2023-11-18T03:40:13;70.55;;;25.33;;
52180;SDS011;38158;53.338;6.514;2023-11-18T03:42:42;119.63;;;28.13;;
52180;SDS011;38158;53.338;6.514;2023-11-18T03:45:11;115.30;;;25.50;;
52180;SDS011;38158;53.338;6.514;2023-11-18T03:47:39;51.92;;;25.95;;
52180;SDS011;38158;53.338;6.514;2023-11-18T03:50:05;100.05;;;27.33;;
52180;SDS011;38158;53.338;6.514;2023-11-18T03:52:33;49.80;;;27.45;;
52180;SDS011;38158;53.338;6.514;2023-11-18T03:55:02;50.55;;;28.50;;
52180;SDS011;38158;53.338;6.514;2023-11-18T03:57:29;50.15;;;28.05;;
52180;SDS011;38158;53.338;6.514;2023-11-18T03:59:55;149.85;;;29.65;;
52180;SDS011;38158;53.338;6.514;2023-11-18T04:02:20;52.90;;;26.73;;
52180;SDS011;38158;53.338;6.514;2023-11-18T04:04:46;82.85;;;26.85;;
52180;SDS011;38158;53.338;6.514;2023-11-18T04:07:13;65.57;;;25.95;;
52180;SDS011;38158;53.338;6.514;2023-11-18T04:09:39;111.00;;;29.85;;
52180;SDS011;38158;53.338;6.514;2023-11-18T04:12:09;82.85;;;28.90;;
52180;SDS011;38158;53.338;6.514;2023-11-18T04:14:35;169.40;;;29.88;;
52180;SDS011;38158;53.338;6.514;2023-11-18T04:17:02;106.07;;;27.50;;
52180;SDS011;38158;53.338;6.514;2023-11-18T04:19:28;101.80;;;26.30;;
52180;SDS011;38158;53.338;6.514;2023-11-18T04:21:53;63.28;;;26.05;;
52180;SDS011;38158;53.338;6.514;2023-11-18T04:24:19;65.35;;;27.17;;
52180;SDS011;38158;53.338;6.514;2023-11-18T04:26:45;97.50;;;27.33;;
52180;SDS011;38158;53.338;6.514;2023-11-18T04:29:13;48.67;;;24.77;;
52180;SDS011;38158;53.338;6.514;2023-11-18T04:31:38;45.40;;;23.42;;
52180;SDS011;38158;53.338;6.514;2023-11-18T04:34:05;62.45;;;23.83;;
52180;SDS011;38158;53.338;6.514;2023-11-18T04:36:30;80.90;;;25.30;;
52180;SDS011;38158;53.338;6.514;2023-11-18T04:38:59;90.63;;;26.08;;
52180;SDS011;38158;53.338;6.514;2023-11-18T04:41:24;64.50;;;23.55;;
52180;SDS011;38158;53.338;6.514;2023-11-18T04:43:51;40.13;;;22.83;;
52180;SDS011;38158;53.338;6.514;2023-11-18T04:46:16;35.30;;;20.75;;
52180;SDS011;38158;53.338;6.514;2023-11-18T04:48:42;53.50;;;23.33;;
52180;SDS011;38158;53.338;6.514;2023-11-18T04:51:08;45.95;;;24.35;;
52180;SDS011;38158;53.338;6.514;2023-11-18T04:53:34;37.47;;;23.10;;
52180;SDS011;38158;53.338;6.514;2023-11-18T04:55:59;56.65;;;22.50;;
52180;SDS011;38158;53.338;6.514;2023-11-18T04:58:25;53.63;;;23.77;;
52180;SDS011;38158;53.338;6.514;2023-11-18T05:00:51;40.67;;;21.67;;
52180;SDS011;38158;53.338;6.514;2023-11-18T05:03:17;56.10;;;24.42;;
52180;SDS011;38158;53.338;6.514;2023-11-18T05:05:42;38.88;;;21.13;;
52180;SDS011;38158;53.338;6.514;2023-11-18T05:08:19;66.63;;;23.90;;
52180;SDS011;38158;53.338;6.514;2023-11-18T05:10:49;35.53;;;21.70;;
52180;SDS011;38158;53.338;6.514;2023-11-18T05:13:15;65.10;;;23.25;;
52180;SDS011;38158;53.338;6.514;2023-11-18T05:15:42;50.40;;;21.88;;
52180;SDS011;38158;53.338;6.514;2023-11-18T05:18:10;37.13;;;20.55;;
52180;SDS011;38158;53.338;6.514;2023-11-18T05:20:39;56.70;;;22.45;;
52180;SDS011;38158;53.338;6.514;2023-11-18T05:23:05;38.75;;;21.65;;
52180;SDS011;38158;53.338;6.514;2023-11-18T05:25:31;41.42;;;21.88;;
52180;SDS011;38158;53.338;6.514;2023-11-18T05:27:58;38.95;;;22.45;;
52180;SDS011;38158;53.338;6.514;2023-11-18T05:30:25;44.08;;;20.98;;
52180;SDS011;38158;53.338;6.514;2023-11-18T05:32:51;37.58;;;21.45;;
52180;SDS011;38158;53.338;6.514;2023-11-18T05:35:17;42.80;;;21.85;;
52180;SDS011;38158;53.338;6.514;2023-11-18T05:37:43;30.88;;;18.77;;
52180;SDS011;38158;53.338;6.514;2023-11-18T05:40:08;53.58;;;21.58;;
52180;SDS011;38158;53.338;6.514;2023-11-18T05:42:36;38.03;;;20.17;;
52180;SDS011;38158;53.338;6.514;2023-11-18T05:45:03;38.10;;;21.52;;
52180;SDS011;38158;53.338;6.514;2023-11-18T05:47:32;34.97;;;20.60;;
52180;SDS011;38158;53.338;6.514;2023-11-18T05:52:25;38.30;;;19.95;;
52180;SDS011;38158;53.338;6.514;2023-11-18T05:54:51;38.28;;;21.35;;
52180;SDS011;38158;53.338;6.514;2023-11-18T05:57:17;35.60;;;21.08;;
52180;SDS011;38158;53.338;6.514;2023-11-18T05:59:43;31.83;;;19.50;;
52180;SDS011;38158;53.338;6.514;2023-11-18T06:02:09;37.95;;;19.33;;
52180;SDS011;38158;53.338;6.514;2023-11-18T06:04:42;36.67;;;20.17;;
52180;SDS011;38158;53.338;6.514;2023-11-18T06:07:09;50.63;;;23.17;;
52180;SDS011;38158;53.338;6.514;2023-11-18T06:09:34;43.05;;;22.08;;
52180;SDS011;38158;53.338;6.514;2023-11-18T06:12:00;32.45;;;18.35;;
52180;SDS011;38158;53.338;6.514;2023-11-18T06:14:27;41.45;;;18.50;;
52180;SDS011;38158;53.338;6.514;2023-11-18T06:16:53;34.00;;;19.83;;
52180;SDS011;38158;53.338;6.514;2023-11-18T06:19:18;44.88;;;19.80;;
52180;SDS011;38158;53.338;6.514;2023-11-18T06:21:46;39.35;;;20.58;;
52180;SDS011;38158;53.338;6.514;2023-11-18T06:24:11;52.88;;;21.48;;
52180;SDS011;38158;53.338;6.514;2023-11-18T06:26:38;54.22;;;22.05;;
52180;SDS011;38158;53.338;6.514;2023-11-18T06:29:04;66.40;;;22.58;;
52180;SDS011;38158;53.338;6.514;2023-11-18T06:31:31;36.58;;;18.00;;
52180;SDS011;38158;53.338;6.514;2023-11-18T06:33:57;32.08;;;19.70;;
52180;SDS011;38158;53.338;6.514;2023-11-18T06:36:22;34.33;;;18.02;;
52180;SDS011;38158;53.338;6.514;2023-11-18T06:38:51;61.65;;;21.95;;
52180;SDS011;38158;53.338;6.514;2023-11-18T06:41:19;46.40;;;18.63;;
52180;SDS011;38158;53.338;6.514;2023-11-18T06:43:48;60.15;;;22.65;;
52180;SDS011;38158;53.338;6.514;2023-11-18T06:46:31;39.45;;;20.17;;
52180;SDS011;38158;53.338;6.514;2023-11-18T06:48:59;52.05;;;22.55;;
52180;SDS011;38158;53.338;6.514;2023-11-18T06:51:30;38.13;;;19.13;;
52180;SDS011;38158;53.338;6.514;2023-11-18T06:53:58;63.33;;;24.23;;
52180;SDS011;38158;53.338;6.514;2023-11-18T06:56:24;41.60;;;20.13;;
52180;SDS011;38158;53.338;6.514;2023-11-18T06:58:50;29.92;;;18.27;;
52180;SDS011;38158;53.338;6.514;2023-11-18T07:01:16;31.52;;;18.88;;
52180;SDS011;38158;53.338;6.514;2023-11-18T07:03:42;43.92;;;20.45;;
52180;SDS011;38158;53.338;6.514;2023-11-18T07:06:09;56.15;;;23.08;;
52180;SDS011;38158;53.338;6.514;2023-11-18T07:08:35;51.15;;;24.40;;
52180;SDS011;38158;53.338;6.514;2023-11-18T07:11:03;50.95;;;23.33;;
52180;SDS011;38158;53.338;6.514;2023-11-18T07:13:32;51.50;;;21.55;;
52180;SDS011;38158;53.338;6.514;2023-11-18T07:16:01;49.30;;;24.75;;
52180;SDS011;38158;53.338;6.514;2023-11-18T07:18:28;38.80;;;23.65;;
52180;SDS011;38158;53.338;6.514;2023-11-18T07:20:56;57.80;;;22.45;;
52180;SDS011;38158;53.338;6.514;2023-11-18T07:23:24;46.78;;;22.92;;
52180;SDS011;38158;53.338;6.514;2023-11-18T07:25:49;49.17;;;24.70;;
52180;SDS011;38158;53.338;6.514;2023-11-18T07:28:15;43.22;;;23.05;;
52180;SDS011;38158;53.338;6.514;2023-11-18T07:30:42;53.30;;;24.27;;
52180;SDS011;38158;53.338;6.514;2023-11-18T07:33:12;48.03;;;23.88;;
52180;SDS011;38158;53.338;6.514;2023-11-18T07:35:44;56.88;;;25.27;;
52180;SDS011;38158;53.338;6.514;2023-11-18T07:38:11;53.20;;;24.17;;
52180;SDS011;38158;53.338;6.514;2023-11-18T07:40:38;65.50;;;27.43;;
52180;SDS011;38158;53.338;6.514;2023-11-18T07:43:10;59.47;;;24.30;;
52180;SDS011;38158;53.338;6.514;2023-11-18T07:45:38;75.57;;;26.77;;
52180;SDS011;38158;53.338;6.514;2023-11-18T07:48:08;66.38;;;23.17;;
52180;SDS011;38158;53.338;6.514;2023-11-18T07:50:35;62.25;;;25.10;;
52180;SDS011;38158;53.338;6.514;2023-11-18T07:55:31;55.55;;;24.98;;
52180;SDS011;38158;53.338;6.514;2023-11-18T07:57:59;67.68;;;26.55;;
52180;SDS011;38158;53.338;6.514;2023-11-18T08:00:26;56.90;;;28.27;;
52180;SDS011;38158;53.338;6.514;2023-11-18T08:02:59;99.18;;;28.10;;
52180;SDS011;38158;53.338;6.514;2023-11-18T08:05:25;74.38;;;28.77;;
52180;SDS011;38158;53.338;6.514;2023-11-18T08:07:53;71.28;;;28.10;;
52180;SDS011;38158;53.338;6.514;2023-11-18T08:10:19;68.85;;;27.40;;
52180;SDS011;38158;53.338;6.514;2023-11-18T08:12:47;69.25;;;27.85;;
52180;SDS011;38158;53.338;6.514;2023-11-18T08:15:13;64.90;;;29.20;;
52180;SDS011;38158;53.338;6.514;2023-11-18T08:17:39;88.20;;;29.73;;
52180;SDS011;38158;53.338;6.514;2023-11-18T08:20:04;56.65;;;28.90;;
52180;SDS011;38158;53.338;6.514;2023-11-18T08:22:39;60.25;;;26.75;;
52180;SDS011;38158;53.338;6.514;2023-11-18T08:25:11;83.63;;;27.88;;
52180;SDS011;38158;53.338;6.514;2023-11-18T08:27:38;69.78;;;30.77;;
52180;SDS011;38158;53.338;6.514;2023-11-18T08:30:08;60.05;;;27.90;;
52180;SDS011;38158;53.338;6.514;2023-11-18T08:32:38;80.85;;;31.27;;
52180;SDS011;38158;53.338;6.514;2023-11-18T08:35:07;73.63;;;27.75;;
52180;SDS011;38158;53.338;6.514;2023-11-18T08:37:34;70.93;;;30.52;;
52180;SDS011;38158;53.338;6.514;2023-11-18T08:40:03;59.60;;;26.88;;
52180;SDS011;38158;53.338;6.514;2023-11-18T08:42:31;72.78;;;29.95;;
52180;SDS011;38158;53.338;6.514;2023-11-18T08:47:26;54.72;;;24.73;;
52180;SDS011;38158;53.338;6.514;2023-11-18T08:49:52;65.05;;;28.10;;
52180;SDS011;38158;53.338;6.514;2023-11-18T08:52:18;63.35;;;28.45;;
52180;SDS011;38158;53.338;6.514;2023-11-18T08:54:44;71.00;;;29.25;;
52180;SDS011;38158;53.338;6.514;2023-11-18T08:57:48;58.88;;;27.75;;
52180;SDS011;38158;53.338;6.514;2023-11-18T09:00:23;51.95;;;25.02;;
52180;SDS011;38158;53.338;6.514;2023-11-18T09:03:09;65.55;;;29.10;;
52180;SDS011;38158;53.338;6.514;2023-11-18T09:05:43;62.75;;;27.23;;
52180;SDS011;38158;53.338;6.514;2023-11-18T09:08:26;67.05;;;27.55;;
52180;SDS011;38158;53.338;6.514;2023-11-18T09:10:57;62.75;;;26.17;;
52180;SDS011;38158;53.338;6.514;2023-11-18T09:13:25;61.88;;;28.73;;
52180;SDS011;38158;53.338;6.514;2023-11-18T09:15:55;78.45;;;30.55;;
52180;SDS011;38158;53.338;6.514;2023-11-18T09:18:26;82.70;;;32.70;;
52180;SDS011;38158;53.338;6.514;2023-11-18T09:20:53;77.20;;;32.25;;
52180;SDS011;38158;53.338;6.514;2023-11-18T09:23:20;68.20;;;28.98;;
52180;SDS011;38158;53.338;6.514;2023-11-18T09:25:48;62.60;;;28.38;;
52180;SDS011;38158;53.338;6.514;2023-11-18T09:28:15;70.47;;;30.95;;
52180;SDS011;38158;53.338;6.514;2023-11-18T09:30:47;73.25;;;31.15;;
52180;SDS011;38158;53.338;6.514;2023-11-18T09:33:22;76.53;;;31.95;;
52180;SDS011;38158;53.338;6.514;2023-11-18T09:35:56;68.45;;;29.88;;
52180;SDS011;38158;53.338;6.514;2023-11-18T09:38:33;74.38;;;31.80;;
52180;SDS011;38158;53.338;6.514;2023-11-18T09:41:02;73.38;;;31.35;;
52180;SDS011;38158;53.338;6.514;2023-11-18T09:43:32;73.68;;;33.92;;
52180;SDS011;38158;53.338;6.514;2023-11-18T09:46:06;94.57;;;33.65;;
52180;SDS011;38158;53.338;6.514;2023-11-18T09:48:38;76.63;;;30.70;;
52180;SDS011;38158;53.338;6.514;2023-11-18T09:51:17;79.85;;;32.53;;
52180;SDS011;38158;53.338;6.514;2023-11-18T09:53:52;69.55;;;30.95;;
52180;SDS011;38158;53.338;6.514;2023-11-18T09:58:57;69.35;;;27.20;;
52180;SDS011;38158;53.338;6.514;2023-11-18T10:01:30;73.20;;;30.73;;
52180;SDS011;38158;53.338;6.514;2023-11-18T10:04:03;73.82;;;31.98;;
52180;SDS011;38158;53.338;6.514;2023-11-18T10:06:32;85.55;;;34.00;;
52180;SDS011;38158;53.338;6.514;2023-11-18T10:09:07;64.40;;;28.60;;
52180;SDS011;38158;53.338;6.514;2023-11-18T10:11:49;77.78;;;30.98;;
52180;SDS011;38158;53.338;6.514;2023-11-18T10:14:15;76.95;;;32.00;;
52180;SDS011;38158;53.338;6.514;2023-11-18T10:16:44;67.22;;;31.30;;
52180;SDS011;38158;53.338;6.514;2023-11-18T10:19:13;70.22;;;31.63;;
52180;SDS011;38158;53.338;6.514;2023-11-18T10:21:42;75.03;;;33.70;;
52180;SDS011;38158;53.338;6.514;2023-11-18T10:24:08;65.72;;;31.75;;
52180;SDS011;38158;53.338;6.514;2023-11-18T10:26:55;74.38;;;32.55;;
52180;SDS011;38158;53.338;6.514;2023-11-18T10:29:26;70.30;;;33.13;;
52180;SDS011;38158;53.338;6.514;2023-11-18T10:32:06;77.68;;;31.65;;
52180;SDS011;38158;53.338;6.514;2023-11-18T10:34:34;81.40;;;34.50;;
52180;SDS011;38158;53.338;6.514;2023-11-18T10:37:03;77.80;;;34.35;;
52180;SDS011;38158;53.338;6.514;2023-11-18T10:39:31;78.90;;;34.72;;
52180;SDS011;38158;53.338;6.514;2023-11-18T10:42:00;70.32;;;32.55;;
52180;SDS011;38158;53.338;6.514;2023-11-18T10:44:26;77.55;;;34.20;;
52180;SDS011;38158;53.338;6.514;2023-11-18T10:46:52;75.32;;;32.63;;
52180;SDS011;38158;53.338;6.514;2023-11-18T10:49:22;77.45;;;35.63;;
52180;SDS011;38158;53.338;6.514;2023-11-18T10:51:47;74.22;;;35.60;;
52180;SDS011;38158;53.338;6.514;2023-11-18T10:54:16;78.25;;;36.33;;
52180;SDS011;38158;53.338;6.514;2023-11-18T10:56:51;69.88;;;32.65;;
52180;SDS011;38158;53.338;6.514;2023-11-18T10:59:21;73.72;;;32.40;;
52180;SDS011;38158;53.338;6.514;2023-11-18T11:01:48;71.07;;;32.00;;
52180;SDS011;38158;53.338;6.514;2023-11-18T11:04:16;75.10;;;36.45;;
52180;SDS011;38158;53.338;6.514;2023-11-18T11:06:45;76.78;;;36.55;;
52180;SDS011;38158;53.338;6.514;2023-11-18T11:09:20;68.50;;;33.85;;
52180;SDS011;38158;53.338;6.514;2023-11-18T11:11:55;75.10;;;37.47;;
52180;SDS011;38158;53.338;6.514;2023-11-18T11:14:35;63.72;;;32.75;;
52180;SDS011;38158;53.338;6.514;2023-11-18T11:17:12;66.03;;;34.78;;
52180;SDS011;38158;53.338;6.514;2023-11-18T11:19:50;66.00;;;34.45;;
52180;SDS011;38158;53.338;6.514;2023-11-18T11:22:29;65.22;;;35.00;;
52180;SDS011;38158;53.338;6.514;2023-11-18T11:25:14;57.33;;;29.98;;
52180;SDS011;38158;53.338;6.514;2023-11-18T11:30:45;54.63;;;30.50;;
52180;SDS011;38158;53.338;6.514;2023-11-18T11:33:46;57.63;;;30.33;;
52180;SDS011;38158;53.338;6.514;2023-11-18T11:36:20;53.13;;;29.65;;
52180;SDS011;38158;53.338;6.514;2023-11-18T11:38:50;60.33;;;33.33;;
52180;SDS011;38158;53.338;6.514;2023-11-18T11:41:18;55.08;;;30.17;;
52180;SDS011;38158;53.338;6.514;2023-11-18T11:43:51;53.10;;;29.20;;
52180;SDS011;38158;53.338;6.514;2023-11-18T11:46:22;56.92;;;30.50;;
52180;SDS011;38158;53.338;6.514;2023-11-18T11:48:52;54.00;;;30.10;;
52180;SDS011;38158;53.338;6.514;2023-11-18T11:59:05;53.20;;;28.40;;
52180;SDS011;38158;53.338;6.514;2023-11-18T12:01:36;44.75;;;25.17;;
52180;SDS011;38158;53.338;6.514;2023-11-18T12:04:11;49.03;;;26.33;;
52180;SDS011;38158;53.338;6.514;2023-11-18T12:06:46;50.33;;;26.27;;
52180;SDS011;38158;53.338;6.514;2023-11-18T12:09:16;53.08;;;27.88;;
52180;SDS011;38158;53.338;6.514;2023-11-18T12:11:45;50.78;;;25.95;;
52180;SDS011;38158;53.338;6.514;2023-11-18T12:14:14;48.08;;;26.73;;
52180;SDS011;38158;53.338;6.514;2023-11-18T12:16:59;47.55;;;27.23;;
52180;SDS011;38158;53.338;6.514;2023-11-18T12:19:39;43.20;;;24.50;;
52180;SDS011;38158;53.338;6.514;2023-11-18T12:22:16;40.25;;;24.02;;
52180;SDS011;38158;53.338;6.514;2023-11-18T12:41:05;42.45;;;24.50;;
52180;SDS011;38158;53.338;6.514;2023-11-18T12:43:46;36.58;;;21.98;;
52180;SDS011;38158;53.338;6.514;2023-11-18T12:49:02;38.88;;;21.17;;
52180;SDS011;38158;53.338;6.514;2023-11-18T12:51:30;36.10;;;21.23;;
52180;SDS011;38158;53.338;6.514;2023-11-18T12:53:59;39.42;;;23.58;;
52180;SDS011;38158;53.338;6.514;2023-11-18T12:56:27;34.75;;;20.05;;
52180;SDS011;38158;53.338;6.514;2023-11-18T12:58:55;34.85;;;21.83;;
52180;SDS011;38158;53.338;6.514;2023-11-18T13:01:22;32.58;;;22.25;;
52180;SDS011;38158;53.338;6.514;2023-11-18T13:03:48;35.58;;;22.88;;
52180;SDS011;38158;53.338;6.514;2023-11-18T13:06:14;34.90;;;21.48;;
52180;SDS011;38158;53.338;6.514;2023-11-18T13:08:40;36.55;;;22.20;;
52180;SDS011;38158;53.338;6.514;2023-11-18T13:11:06;33.33;;;19.67;;
52180;SDS011;38158;53.338;6.514;2023-11-18T13:13:38;32.13;;;19.05;;
52180;SDS011;38158;53.338;6.514;2023-11-18T13:16:05;34.03;;;20.55;;
52180;SDS011;38158;53.338;6.514;2023-11-18T13:18:44;31.38;;;17.92;;
52180;SDS011;38158;53.338;6.514;2023-11-18T13:21:14;31.52;;;17.92;;
52180;SDS011;38158;53.338;6.514;2023-11-18T13:23:47;30.88;;;18.52;;
52180;SDS011;38158;53.338;6.514;2023-11-18T13:26:15;31.48;;;19.58;;
52180;SDS011;38158;53.338;6.514;2023-11-18T13:28:41;28.48;;;18.48;;
52180;SDS011;38158;53.338;6.514;2023-11-18T13:31:09;25.73;;;17.67;;
52180;SDS011;38158;53.338;6.514;2023-11-18T13:33:38;33.53;;;18.48;;
52180;SDS011;38158;53.338;6.514;2023-11-18T13:36:05;31.35;;;18.55;;
52180;SDS011;38158;53.338;6.514;2023-11-18T13:38:35;29.27;;;17.15;;
52180;SDS011;38158;53.338;6.514;2023-11-18T13:41:05;29.88;;;16.52;;
52180;SDS011;38158;53.338;6.514;2023-11-18T13:43:43;26.85;;;16.80;;
52180;SDS011;38158;53.338;6.514;2023-11-18T13:46:13;25.88;;;15.65;;
52180;SDS011;38158;53.338;6.514;2023-11-18T13:48:40;27.40;;;16.35;;
52180;SDS011;38158;53.338;6.514;2023-11-18T13:51:09;23.20;;;14.80;;
52180;SDS011;38158;53.338;6.514;2023-11-18T13:53:40;24.20;;;14.85;;
52180;SDS011;38158;53.338;6.514;2023-11-18T13:56:18;24.92;;;15.40;;
52180;SDS011;38158;53.338;6.514;2023-11-18T13:58:45;25.45;;;15.43;;
52180;SDS011;38158;53.338;6.514;2023-11-18T14:01:12;23.83;;;14.32;;
52180;SDS011;38158;53.338;6.514;2023-11-18T14:03:38;27.35;;;15.95;;
52180;SDS011;38158;53.338;6.514;2023-11-18T14:06:05;25.42;;;15.30;;
52180;SDS011;38158;53.338;6.514;2023-11-18T14:08:32;23.42;;;12.98;;
52180;SDS011;38158;53.338;6.514;2023-11-18T14:13:25;20.35;;;11.73;;
52180;SDS011;38158;53.338;6.514;2023-11-18T14:15:56;27.00;;;13.95;;
52180;SDS011;38158;53.338;6.514;2023-11-18T14:18:22;22.05;;;14.20;;
52180;SDS011;38158;53.338;6.514;2023-11-18T14:20:48;22.58;;;13.93;;
52180;SDS011;38158;53.338;6.514;2023-11-18T14:23:15;25.65;;;15.60;;
52180;SDS011;38158;53.338;6.514;2023-11-18T14:25:41;22.58;;;15.05;;
52180;SDS011;38158;53.338;6.514;2023-11-18T14:28:07;24.65;;;14.00;;
52180;SDS011;38158;53.338;6.514;2023-11-18T14:30:35;20.88;;;12.20;;
52180;SDS011;38158;53.338;6.514;2023-11-18T14:33:01;19.85;;;12.80;;
52180;SDS011;38158;53.338;6.514;2023-11-18T14:35:28;21.30;;;12.27;;
52180;SDS011;38158;53.338;6.514;2023-11-18T14:37:54;24.55;;;12.82;;
52180;SDS011;38158;53.338;6.514;2023-11-18T14:40:21;21.67;;;13.67;;
52180;SDS011;38158;53.338;6.514;2023-11-18T14:42:49;21.35;;;12.57;;
52180;SDS011;38158;53.338;6.514;2023-11-18T14:45:17;17.58;;;11.63;;
52180;SDS011;38158;53.338;6.514;2023-11-18T14:47:43;19.15;;;11.50;;
52180;SDS011;38158;53.338;6.514;2023-11-18T14:50:21;18.92;;;12.38;;
52180;SDS011;38158;53.338;6.514;2023-11-18T14:52:49;18.00;;;11.68;;
52180;SDS011;38158;53.338;6.514;2023-11-18T14:55:17;18.13;;;11.30;;
52180;SDS011;38158;53.338;6.514;2023-11-18T14:57:43;15.60;;;10.23;;
52180;SDS011;38158;53.338;6.514;2023-11-18T15:00:10;19.88;;;11.63;;
52180;SDS011;38158;53.338;6.514;2023-11-18T15:02:51;21.48;;;12.65;;
52180;SDS011;38158;53.338;6.514;2023-11-18T15:05:18;19.63;;;11.45;;
52180;SDS011;38158;53.338;6.514;2023-11-18T15:07:45;19.27;;;11.23;;
52180;SDS011;38158;53.338;6.514;2023-11-18T15:10:16;21.42;;;11.57;;
52180;SDS011;38158;53.338;6.514;2023-11-18T15:12:48;19.45;;;11.70;;
52180;SDS011;38158;53.338;6.514;2023-11-18T15:15:23;20.95;;;13.30;;
52180;SDS011;38158;53.338;6.514;2023-11-18T15:17:57;22.10;;;13.40;;